Azalea Park, Florida
Current Conditions -  °F | °C
As of 6:53 PM on Saturday 20 Dec 2014 (Local Time) from KORL Reporting Station
Scattered Clouds Scattered Clouds  
Wind Chill: 21°   Ceiling: Unl
Heat Index: 21°   Visibility: 10mi
Dew Point: 16°   Wind: 8mph
Humidity: 75%   Direction: 60°ENE
Pressure: 30.08"   Gusts: NA
Location:  28.5525°N, 81.3003°W
Report Text: KORL 202353Z 06007KT 10SM SCT095 21/16 A3008 RMK AO2 SLP189 T02060161 10250 20206 53012
Loading
Personal Weather Stations






























Interactive Weather Map New forecast layout! Learn more

10-Day Weather Forecast

Advertisements
Track Severe Weather on mobile